Station Historical Data
Daily Summary for March 16, 2017 Units:  English    Metric   Both
« Previous Day
Next Day »
Daily Weekly Monthly Yearly Custom
  High: Low: Average:
Temperature: 34.4 °F 18.4 °F 25.7 °F
Dew Point: 17.9 °F 11.5 °F 14.7 °F
Humidity: 77% 48% 64%
Wind Speed: 15.0mph 1.0mph 6.3mph
Wind Gust: 22.0mph - -
Wind- - West
Pressure: 30.24 in 30.02 in -
Precipitation: 0.00 in    
Historical Graphs
 
 
Tabular Data for March 16, 2017
Time Temperature Dew Point Pressure Wind Wind Speed Wind Gust Humidity Rainfall Rate (Hourly)
00:04 20.2 °F 12.3 °F 30.03 in WNW 6.0 mph 12.0 mph 71% 0.00 in
00:09 20.0 °F 12.1 °F 30.03 in WNW 6.0 mph 13.0 mph 71% 0.00 in
00:14 19.7 °F 11.8 °F 30.03 in West 6.0 mph 13.0 mph 71% 0.00 in
00:19 19.5 °F 11.9 °F 30.03 in West 10.0 mph 12.0 mph 72% 0.00 in
00:24 19.4 °F 11.8 °F 30.02 in WNW 6.0 mph 10.0 mph 72% 0.00 in
00:29 19.2 °F 12.0 °F 30.03 in West 5.0 mph 10.0 mph 73% 0.00 in
00:34 18.9 °F 11.7 °F 30.02 in West 5.0 mph 12.0 mph 73% 0.00 in
00:39 18.9 °F 11.7 °F 30.02 in West 5.0 mph 12.0 mph 73% 0.00 in
00:44 18.8 °F 11.6 °F 30.03 in West 3.0 mph 10.0 mph 73% 0.00 in
00:49 18.7 °F 11.5 °F 30.03 in West 5.0 mph 9.0 mph 73% 0.00 in
00:54 18.5 °F 11.6 °F 30.03 in NW 6.0 mph 9.0 mph 74% 0.00 in
00:59 18.5 °F 11.6 °F 30.03 in WNW 5.0 mph 7.0 mph 74% 0.00 in
01:04 18.5 °F 11.6 °F 30.03 in West 5.0 mph 10.0 mph 74% 0.00 in
01:09 18.6 °F 11.7 °F 30.03 in West 4.0 mph 10.0 mph 74% 0.00 in
01:14 18.5 °F 11.6 °F 30.03 in West 4.0 mph 8.0 mph 74% 0.00 in
01:19 18.4 °F 11.5 °F 30.03 in WNW 3.0 mph 9.0 mph 74% 0.00 in
01:24 18.5 °F 11.6 °F 30.03 in WNW 5.0 mph 9.0 mph 74% 0.00 in
01:29 18.7 °F 11.8 °F 30.03 in WSW 3.0 mph 10.0 mph 74% 0.00 in
01:34 18.7 °F 11.8 °F 30.03 in West 4.0 mph 8.0 mph 74% 0.00 in
01:39 18.5 °F 11.6 °F 30.03 in West 4.0 mph 8.0 mph 74% 0.00 in
01:44 18.5 °F 11.9 °F 30.03 in West 4.0 mph 8.0 mph 75% 0.00 in
01:49 18.5 °F 11.9 °F 30.03 in West 3.0 mph 10.0 mph 75% 0.00 in
01:54 18.5 °F 11.9 °F 30.03 in West 4.0 mph 10.0 mph 75% 0.00 in
01:59 18.8 °F 12.2 °F 30.03 in WNW 6.0 mph 11.0 mph 75% 0.00 in
02:04 18.7 °F 11.8 °F 30.03 in West 5.0 mph 10.0 mph 74% 0.00 in
02:09 18.7 °F 12.1 °F 30.03 in West 5.0 mph 10.0 mph 75% 0.00 in
02:14 18.8 °F 11.9 °F 30.04 in West 5.0 mph 10.0 mph 74% 0.00 in
02:19 18.8 °F 11.9 °F 30.04 in West 3.0 mph 9.0 mph 74% 0.00 in
02:24 18.7 °F 12.1 °F 30.04 in West 6.0 mph 10.0 mph 75% 0.00 in
02:29 18.8 °F 12.2 °F 30.04 in West 5.0 mph 9.0 mph 75% 0.00 in
02:34 18.7 °F 12.1 °F 30.04 in WNW 10.0 mph 10.0 mph 75% 0.00 in
02:39 18.7 °F 12.1 °F 30.04 in West 2.0 mph 10.0 mph 75% 0.00 in
02:44 18.6 °F 12.0 °F 30.04 in West 4.0 mph 10.0 mph 75% 0.00 in
02:49 18.6 °F 12.3 °F 30.04 in West 4.0 mph 11.0 mph 76% 0.00 in
02:54 18.6 °F 12.3 °F 30.04 in West 5.0 mph 11.0 mph 76% 0.00 in
02:59 18.6 °F 12.3 °F 30.04 in West 5.0 mph 10.0 mph 76% 0.00 in
03:04 18.6 °F 12.3 °F 30.04 in WSW 4.0 mph 10.0 mph 76% 0.00 in
03:09 18.7 °F 12.4 °F 30.04 in West 6.0 mph 9.0 mph 76% 0.00 in
03:14 18.8 °F 12.8 °F 30.04 in West 5.0 mph 10.0 mph 77% 0.00 in
03:19 18.7 °F 12.4 °F 30.04 in West 5.0 mph 10.0 mph 76% 0.00 in
03:24 18.8 °F 12.8 °F 30.04 in West 5.0 mph 10.0 mph 77% 0.00 in
03:29 18.8 °F 12.8 °F 30.04 in WNW 6.0 mph 11.0 mph 77% 0.00 in
03:34 18.8 °F 12.8 °F 30.04 in West 4.0 mph 10.0 mph 77% 0.00 in
03:39 18.8 °F 12.8 °F 30.04 in West 7.0 mph 7.0 mph 77% 0.00 in
03:44 19.0 °F 13.0 °F 30.04 in WNW 5.0 mph 8.0 mph 77% 0.00 in
03:49 19.0 °F 13.0 °F 30.05 in West 4.0 mph 9.0 mph 77% 0.00 in
03:54 18.9 °F 12.9 °F 30.05 in West 4.0 mph 9.0 mph 77% 0.00 in
03:59 19.2 °F 13.2 °F 30.05 in West 4.0 mph 10.0 mph 77% 0.00 in
04:04 19.4 °F 13.4 °F 30.05 in WNW 6.0 mph 8.0 mph 77% 0.00 in
04:09 19.6 °F 13.6 °F 30.05 in WNW 3.0 mph 11.0 mph 77% 0.00 in
04:14 19.7 °F 13.7 °F 30.05 in WNW 5.0 mph 11.0 mph 77% 0.00 in
04:19 19.6 °F 13.3 °F 30.05 in West 5.0 mph 11.0 mph 76% 0.00 in
04:24 19.4 °F 13.1 °F 30.05 in West 4.0 mph 9.0 mph 76% 0.00 in
04:29 19.4 °F 13.4 °F 30.05 in WSW 3.0 mph 8.0 mph 77% 0.00 in
04:34 19.3 °F 13.3 °F 30.05 in WSW 6.0 mph 7.0 mph 77% 0.00 in
04:39 19.2 °F 13.2 °F 30.05 in NNW 4.0 mph 8.0 mph 77% 0.00 in
04:44 19.2 °F 13.2 °F 30.05 in WNW 6.0 mph 10.0 mph 77% 0.00 in
04:49 19.2 °F 13.2 °F 30.05 in West 6.0 mph 11.0 mph 77% 0.00 in
04:54 19.3 °F 13.3 °F 30.06 in West 6.0 mph 11.0 mph 77% 0.00 in
04:59 19.3 °F 13.3 °F 30.06 in WNW 4.0 mph 11.0 mph 77% 0.00 in
05:04 19.3 °F 13.3 °F 30.06 in SSW 7.0 mph 11.0 mph 77% 0.00 in
05:09 19.4 °F 13.4 °F 30.06 in West 6.0 mph 13.0 mph 77% 0.00 in
05:14 19.3 °F 13.0 °F 30.06 in WSW 4.0 mph 10.0 mph 76% 0.00 in
05:19 19.3 °F 13.0 °F 30.06 in West 5.0 mph 10.0 mph 76% 0.00 in
05:24 19.2 °F 12.9 °F 30.06 in West 4.0 mph 11.0 mph 76% 0.00 in
05:29 19.1 °F 12.8 °F 30.06 in West 4.0 mph 11.0 mph 76% 0.00 in
05:34 19.0 °F 12.7 °F 30.06 in West 4.0 mph 9.0 mph 76% 0.00 in
05:39 19.0 °F 12.7 °F 30.07 in West 4.0 mph 11.0 mph 76% 0.00 in
05:44 19.0 °F 13.0 °F 30.07 in West 4.0 mph 8.0 mph 77% 0.00 in
05:49 19.0 °F 12.7 °F 30.07 in West 5.0 mph 10.0 mph 76% 0.00 in
05:54 19.0 °F 12.7 °F 30.07 in WNW 5.0 mph 10.0 mph 76% 0.00 in
05:59 19.1 °F 12.8 °F 30.07 in SW 6.0 mph 9.0 mph 76% 0.00 in
06:04 19.0 °F 12.7 °F 30.07 in West 4.0 mph 11.0 mph 76% 0.00 in
06:09 19.0 °F 12.7 °F 30.08 in WSW 6.0 mph 9.0 mph 76% 0.00 in
06:14 19.0 °F 12.7 °F 30.08 in West 4.0 mph 8.0 mph 76% 0.00 in
06:19 19.0 °F 12.7 °F 30.08 in West 4.0 mph 11.0 mph 76% 0.00 in
06:24 18.9 °F 12.6 °F 30.08 in West 5.0 mph 11.0 mph 76% 0.00 in
06:29 18.8 °F 12.5 °F 30.08 in West 4.0 mph 9.0 mph 76% 0.00 in
06:34 18.9 °F 12.9 °F 30.08 in West 5.0 mph 9.0 mph 77% 0.00 in
06:39 19.0 °F 12.7 °F 30.08 in West 5.0 mph 11.0 mph 76% 0.00 in
06:44 19.0 °F 12.7 °F 30.08 in West 5.0 mph 11.0 mph 76% 0.00 in
06:49 19.0 °F 12.7 °F 30.08 in West 4.0 mph 9.0 mph 76% 0.00 in
06:54 18.9 °F 12.6 °F 30.09 in WNW 5.0 mph 10.0 mph 76% 0.00 in
06:59 18.8 °F 12.8 °F 30.09 in West 5.0 mph 11.0 mph 77% 0.00 in
07:04 19.0 °F 13.0 °F 30.09 in West 5.0 mph 12.0 mph 77% 0.00 in
07:09 19.0 °F 12.7 °F 30.09 in West 5.0 mph 9.0 mph 76% 0.00 in
07:14 18.9 °F 12.6 °F 30.09 in WSW 8.0 mph 11.0 mph 76% 0.00 in
07:19 19.1 °F 12.8 °F 30.10 in WNW 5.0 mph 8.0 mph 76% 0.00 in
07:24 19.0 °F 12.4 °F 30.10 in West 8.0 mph 9.0 mph 75% 0.00 in
07:29 19.1 °F 12.5 °F 30.10 in West 5.0 mph 9.0 mph 75% 0.00 in
07:34 19.2 °F 12.3 °F 30.10 in West 5.0 mph 10.0 mph 74% 0.00 in
07:39 19.1 °F 12.5 °F 30.10 in WSW 5.0 mph 9.0 mph 75% 0.00 in
07:44 19.3 °F 12.4 °F 30.10 in West 4.0 mph 11.0 mph 74% 0.00 in
07:49 19.4 °F 12.5 °F 30.10 in WNW 9.0 mph 11.0 mph 74% 0.00 in
07:54 19.6 °F 12.3 °F 30.10 in West 4.0 mph 12.0 mph 73% 0.00 in
07:59 19.8 °F 12.5 °F 30.11 in NW 5.0 mph 10.0 mph 73% 0.00 in
08:04 20.0 °F 12.4 °F 30.11 in West 5.0 mph 10.0 mph 72% 0.00 in
08:09 19.9 °F 12.3 °F 30.11 in West 5.0 mph 10.0 mph 72% 0.00 in
08:14 20.0 °F 12.4 °F 30.12 in West 5.0 mph 12.0 mph 72% 0.00 in
08:19 20.1 °F 12.5 °F 30.12 in West 6.0 mph 13.0 mph 72% 0.00 in
08:24 20.2 °F 12.6 °F 30.12 in West 5.0 mph 13.0 mph 72% 0.00 in
08:29 20.6 °F 12.7 °F 30.12 in West 3.0 mph 15.0 mph 71% 0.00 in
08:34 20.8 °F 12.6 °F 30.12 in West 6.0 mph 15.0 mph 70% 0.00 in
08:39 21.1 °F 12.8 °F 30.12 in WNW 8.0 mph 12.0 mph 70% 0.00 in
08:44 21.1 °F 12.5 °F 30.12 in WNW 9.0 mph 12.0 mph 69% 0.00 in
08:49 21.5 °F 12.9 °F 30.12 in West 6.0 mph 14.0 mph 69% 0.00 in
08:54 21.8 °F 12.9 °F 30.12 in West 2.0 mph 14.0 mph 68% 0.00 in
08:59 22.1 °F 13.1 °F 30.12 in West 3.0 mph 12.0 mph 68% 0.00 in
09:04 22.4 °F 13.1 °F 30.13 in West 8.0 mph 13.0 mph 67% 0.00 in
09:09 22.7 °F 13.4 °F 30.13 in West 6.0 mph 13.0 mph 67% 0.00 in
09:14 22.9 °F 13.2 °F 30.13 in West 7.0 mph 13.0 mph 66% 0.00 in
09:19 23.1 °F 13.4 °F 30.13 in West 7.0 mph 15.0 mph 66% 0.00 in
09:24 23.3 °F 13.6 °F 30.13 in West 6.0 mph 15.0 mph 66% 0.00 in
09:29 23.4 °F 13.7 °F 30.13 in West 7.0 mph 14.0 mph 66% 0.00 in
09:34 23.5 °F 13.8 °F 30.13 in West 6.0 mph 16.0 mph 66% 0.00 in
09:39 23.8 °F 13.7 °F 30.13 in West 7.0 mph 16.0 mph 65% 0.00 in
09:44 23.9 °F 13.5 °F 30.13 in WNW 5.0 mph 12.0 mph 64% 0.00 in
09:49 24.2 °F 14.1 °F 30.13 in SW 6.0 mph 13.0 mph 65% 0.00 in
09:54 24.3 °F 13.9 °F 30.13 in NNW 8.0 mph 13.0 mph 64% 0.00 in
09:59 24.5 °F 14.1 °F 30.13 in WSW 5.0 mph 15.0 mph 64% 0.00 in
10:04 24.8 °F 14.0 °F 30.13 in WSW 7.0 mph 15.0 mph 63% 0.00 in
10:09 25.3 °F 14.5 °F 30.13 in West 9.0 mph 15.0 mph 63% 0.00 in
10:14 25.4 °F 14.5 °F 30.14 in West 7.0 mph 15.0 mph 63% 0.00 in
10:19 25.5 °F 14.3 °F 30.14 in West 7.0 mph 17.0 mph 62% 0.00 in
10:24 25.6 °F 14.4 °F 30.13 in West 8.0 mph 17.0 mph 62% 0.00 in
10:29 25.9 °F 14.7 °F 30.14 in WNW 8.0 mph 16.0 mph 62% 0.00 in
10:34 26.1 °F 15.2 °F 30.14 in West 7.0 mph 16.0 mph 63% 0.00 in
10:39 26.5 °F 15.2 °F 30.14 in NW 7.0 mph 14.0 mph 62% 0.00 in
10:44 26.3 °F 14.7 °F 30.14 in WNW 8.0 mph 15.0 mph 61% 0.00 in
10:49 26.4 °F 15.1 °F 30.14 in West 7.0 mph 12.0 mph 62% 0.01 in
10:54 26.6 °F 15.3 °F 30.14 in West 6.0 mph 15.0 mph 62% 0.01 in
10:59 26.8 °F 15.5 °F 30.14 in West 5.0 mph 12.0 mph 62% 0.01 in
11:04 27.4 °F 15.7 °F 30.14 in NNW 6.0 mph 11.0 mph 61% 0.01 in
11:09 27.3 °F 15.2 °F 30.14 in West 9.0 mph 12.0 mph 60% 0.01 in
11:14 26.8 °F 15.1 °F 30.14 in West 9.0 mph 14.0 mph 61% 0.01 in
11:19 27.0 °F 15.3 °F 30.14 in West 9.0 mph 16.0 mph 61% 0.01 in
11:24 27.2 °F 15.9 °F 30.15 in WNW 8.0 mph 16.0 mph 62% 0.02 in
11:29 27.3 °F 15.2 °F 30.15 in West 7.0 mph 17.0 mph 60% 0.02 in
11:34 27.1 °F 15.0 °F 30.15 in West 7.0 mph 17.0 mph 60% 0.02 in
11:39 27.6 °F 16.3 °F 30.15 in West 7.0 mph 14.0 mph 62% 0.02 in
11:44 27.6 °F 15.1 °F 30.15 in West 8.0 mph 17.0 mph 59% 0.02 in
11:49 27.6 °F 15.5 °F 30.15 in West 9.0 mph 17.0 mph 60% 0.01 in
11:54 27.7 °F 15.2 °F 30.15 in West 13.0 mph 15.0 mph 59% 0.01 in
11:59 27.7 °F 14.8 °F 30.15 in WNW 7.0 mph 17.0 mph 58% 0.02 in
12:04 27.9 °F 14.6 °F 30.15 in West 3.0 mph 19.0 mph 57% 0.02 in
12:09 28.3 °F 14.6 °F 30.15 in WSW 7.0 mph 14.0 mph 56% 0.02 in
12:14 28.4 °F 15.1 °F 30.16 in WSW 5.0 mph 14.0 mph 57% 0.02 in
12:19 28.6 °F 15.3 °F 30.16 in West 8.0 mph 14.0 mph 57% 0.02 in
12:24 28.8 °F 14.2 °F 30.15 in West 7.0 mph 14.0 mph 54% 0.01 in
12:29 28.6 °F 14.0 °F 30.15 in West 7.0 mph 18.0 mph 54% 0.02 in
12:34 28.9 °F 14.7 °F 30.15 in West 8.0 mph 18.0 mph 55% 0.02 in
12:39 28.8 °F 14.2 °F 30.15 in West 8.0 mph 17.0 mph 54% 0.02 in
12:44 29.5 °F 15.3 °F 30.15 in West 8.0 mph 17.0 mph 55% 0.02 in
12:49 29.3 °F 14.3 °F 30.15 in West 8.0 mph 20.0 mph 53% 0.02 in
12:54 29.4 °F 14.8 °F 30.15 in WSW 15.0 mph 16.0 mph 54% 0.03 in
12:59 29.7 °F 15.5 °F 30.15 in NW 5.0 mph 15.0 mph 55% 0.02 in
13:04 29.6 °F 14.5 °F 30.14 in West 7.0 mph 14.0 mph 53% 0.02 in
13:09 29.8 °F 14.7 °F 30.15 in SW 7.0 mph 20.0 mph 53% 0.03 in
13:14 30.2 °F 15.5 °F 30.15 in West 11.0 mph 15.0 mph 54% 0.03 in
13:19 30.6 °F 15.9 °F 30.14 in WSW 9.0 mph 15.0 mph 54% 0.03 in
13:24 30.5 °F 15.4 °F 30.14 in West 8.0 mph 15.0 mph 53% 0.03 in
13:29 30.6 °F 14.6 °F 30.14 in West 8.0 mph 15.0 mph 51% 0.03 in
13:34 31.0 °F 15.4 °F 30.14 in West 8.0 mph 17.0 mph 52% 0.03 in
13:39 31.0 °F 15.4 °F 30.15 in West 9.0 mph 19.0 mph 52% 0.04 in
13:44 31.4 °F 16.2 °F 30.15 in West 9.0 mph 19.0 mph 53% 0.04 in
13:49 31.7 °F 16.5 °F 30.14 in West 8.0 mph 18.0 mph 53% 0.04 in
13:54 31.7 °F 16.1 °F 30.14 in WNW 8.0 mph 14.0 mph 52% 0.04 in
13:59 31.6 °F 15.1 °F 30.14 in WNW 11.0 mph 19.0 mph 50% 0.05 in
14:04 31.3 °F 14.8 °F 30.14 in West 10.0 mph 18.0 mph 50% 0.05 in
14:09 31.8 °F 17.0 °F 30.14 in West 12.0 mph 15.0 mph 54% 0.05 in
14:14 31.8 °F 15.3 °F 30.14 in West 8.0 mph 19.0 mph 50% 0.05 in
14:19 31.9 °F 15.3 °F 30.14 in WSW 3.0 mph 17.0 mph 50% 0.06 in
14:24 32.2 °F 16.1 °F 30.14 in West 15.0 mph 20.0 mph 51% 0.06 in
14:29 32.2 °F 16.1 °F 30.14 in West 9.0 mph 20.0 mph 51% 0.05 in
14:34 32.4 °F 15.8 °F 30.14 in WNW 10.0 mph 21.0 mph 50% 0.06 in
14:39 32.4 °F 15.8 °F 30.14 in West 10.0 mph 21.0 mph 50% 0.05 in
14:49 33.0 °F 16.4 °F 30.14 in West 8.0 mph 16.0 mph 50% 0.05 in
14:54 32.2 °F 15.2 °F 30.14 in West 9.0 mph 18.0 mph 49% 0.05 in
14:59 32.4 °F 16.3 °F 30.14 in SW 8.0 mph 21.0 mph 51% 0.04 in
15:04 32.7 °F 15.1 °F 30.13 in West 10.0 mph 21.0 mph 48% 0.04 in
15:09 33.2 °F 16.5 °F 30.14 in WSW 8.0 mph 21.0 mph 50% 0.04 in
15:14 33.4 °F 16.3 °F 30.14 in NW 8.0 mph 17.0 mph 49% 0.04 in
15:19 33.2 °F 16.1 °F 30.14 in WNW 8.0 mph 17.0 mph 49% 0.03 in
15:24 33.4 °F 16.3 °F 30.14 in West 14.0 mph 19.0 mph 49% 0.03 in
15:29 33.1 °F 16.0 °F 30.14 in West 6.0 mph 18.0 mph 49% 0.04 in
15:34 33.5 °F 16.8 °F 30.14 in West 10.0 mph 18.0 mph 50% 0.03 in
15:39 33.6 °F 16.0 °F 30.14 in West 10.0 mph 17.0 mph 48% 0.03 in
15:44 34.1 °F 16.4 °F 30.14 in West 9.0 mph 17.0 mph 48% 0.03 in
15:49 34.1 °F 17.8 °F 30.14 in WSW 7.0 mph 19.0 mph 51% 0.04 in
15:54 34.3 °F 16.6 °F 30.14 in SW 5.0 mph 13.0 mph 48% 0.03 in
15:59 33.9 °F 16.7 °F 30.14 in WSW 11.0 mph 22.0 mph 49% 0.03 in
16:04 33.8 °F 16.2 °F 30.14 in West 14.0 mph 19.0 mph 48% 0.03 in
16:09 33.7 °F 17.0 °F 30.14 in West 10.0 mph 19.0 mph 50% 0.02 in
16:14 33.8 °F 16.6 °F 30.14 in West 10.0 mph 19.0 mph 49% 0.03 in
16:19 34.0 °F 16.8 °F 30.14 in West 9.0 mph 19.0 mph 49% 0.03 in
16:24 33.9 °F 16.7 °F 30.14 in WSW 9.0 mph 18.0 mph 49% 0.03 in
16:29 34.4 °F 17.2 °F 30.14 in West 8.0 mph 18.0 mph 49% 0.02 in
16:34 33.8 °F 17.1 °F 30.14 in West 7.0 mph 17.0 mph 50% 0.02 in
16:39 33.7 °F 17.5 °F 30.14 in West 9.0 mph 17.0 mph 51% 0.02 in
16:44 33.5 °F 17.7 °F 30.14 in West 12.0 mph 16.0 mph 52% 0.02 in
16:49 33.6 °F 17.4 °F 30.14 in WNW 5.0 mph 15.0 mph 51% 0.01 in
16:54 34.2 °F 17.9 °F 30.14 in West 12.0 mph 18.0 mph 51% 0.02 in
16:59 33.9 °F 17.7 °F 30.14 in SSW 7.0 mph 17.0 mph 51% 0.02 in
17:04 34.0 °F 17.3 °F 30.14 in West 13.0 mph 20.0 mph 50% 0.02 in
17:09 33.9 °F 16.7 °F 30.14 in West 7.0 mph 18.0 mph 49% 0.02 in
17:14 34.0 °F 17.3 °F 30.14 in West 9.0 mph 18.0 mph 50% 0.01 in
17:19 34.1 °F 17.4 °F 30.14 in West 9.0 mph 17.0 mph 50% 0.01 in
17:24 33.9 °F 17.7 °F 30.14 in WNW 10.0 mph 18.0 mph 51% 0.01 in
17:29 33.7 °F 17.5 °F 30.14 in WNW 10.0 mph 20.0 mph 51% 0.01 in
17:34 33.9 °F 17.2 °F 30.14 in West 9.0 mph 20.0 mph 50% 0.01 in
17:39 33.8 °F 17.1 °F 30.14 in WNW 6.0 mph 18.0 mph 50% 0.01 in
17:44 33.8 °F 17.1 °F 30.14 in West 9.0 mph 18.0 mph 50% 0.01 in
17:49 33.8 °F 17.1 °F 30.14 in WSW 11.0 mph 18.0 mph 50% 0.01 in
17:54 33.4 °F 17.2 °F 30.15 in WNW 13.0 mph 18.0 mph 51% 0.00 in
17:59 33.3 °F 17.1 °F 30.15 in WSW 6.0 mph 14.0 mph 51% 0.00 in
18:04 32.9 °F 17.2 °F 30.15 in WNW 9.0 mph 21.0 mph 52% 0.00 in
18:09 32.7 °F 17.0 °F 30.15 in West 7.0 mph 17.0 mph 52% 0.00 in
18:14 32.7 °F 17.4 °F 30.15 in West 9.0 mph 17.0 mph 53% 0.00 in
18:19 32.6 °F 17.3 °F 30.15 in West 8.0 mph 17.0 mph 53% 0.00 in
18:24 32.4 °F 17.2 °F 30.16 in WNW 9.0 mph 22.0 mph 53% 0.00 in
18:29 32.4 °F 17.2 °F 30.16 in West 10.0 mph 22.0 mph 53% 0.00 in
18:34 32.2 °F 17.0 °F 30.16 in West 9.0 mph 20.0 mph 53% 0.00 in
18:39 32.2 °F 17.4 °F 30.16 in West 8.0 mph 16.0 mph 54% 0.00 in
18:44 32.1 °F 16.9 °F 30.16 in SW 10.0 mph 16.0 mph 53% 0.00 in
18:49 31.8 °F 17.0 °F 30.16 in West 8.0 mph 18.0 mph 54% 0.00 in
18:54 31.7 °F 16.9 °F 30.17 in West 9.0 mph 16.0 mph 54% 0.00 in
18:59 31.7 °F 16.5 °F 30.17 in WNW 15.0 mph 18.0 mph 53% 0.00 in
19:04 31.4 °F 16.7 °F 30.17 in West 9.0 mph 18.0 mph 54% 0.00 in
19:09 31.4 °F 16.2 °F 30.17 in South 5.0 mph 16.0 mph 53% 0.00 in
19:14 31.2 °F 16.5 °F 30.17 in WNW 7.0 mph 18.0 mph 54% 0.00 in
19:19 30.9 °F 16.6 °F 30.18 in West 4.0 mph 10.0 mph 55% 0.00 in
19:24 30.8 °F 16.5 °F 30.18 in West 6.0 mph 14.0 mph 55% 0.00 in
19:29 30.8 °F 16.5 °F 30.18 in West 6.0 mph 14.0 mph 55% 0.00 in
19:34 30.5 °F 16.7 °F 30.18 in West 5.0 mph 11.0 mph 56% 0.00 in
19:39 30.6 °F 16.3 °F 30.19 in West 6.0 mph 15.0 mph 55% 0.00 in
19:44 30.5 °F 16.7 °F 30.18 in WNW 5.0 mph 15.0 mph 56% 0.00 in
19:49 30.3 °F 16.5 °F 30.18 in West 6.0 mph 15.0 mph 56% 0.00 in
19:54 30.1 °F 16.7 °F 30.19 in WNW 7.0 mph 16.0 mph 57% 0.00 in
19:59 30.1 °F 16.7 °F 30.19 in West 7.0 mph 16.0 mph 57% 0.00 in
20:04 29.9 °F 16.5 °F 30.19 in WNW 7.0 mph 11.0 mph 57% 0.00 in
20:09 29.8 °F 16.4 °F 30.20 in West 4.0 mph 10.0 mph 57% 0.00 in
20:14 29.7 °F 16.7 °F 30.20 in WSW 2.0 mph 7.0 mph 58% 0.00 in
20:19 29.6 °F 16.6 °F 30.20 in WSW 4.0 mph 10.0 mph 58% 0.00 in
20:24 29.4 °F 16.8 °F 30.20 in West 5.0 mph 16.0 mph 59% 0.00 in
20:29 29.5 °F 16.9 °F 30.20 in West 6.0 mph 16.0 mph 59% 0.00 in
20:34 29.2 °F 16.6 °F 30.21 in West 5.0 mph 13.0 mph 59% 0.00 in
20:39 29.1 °F 16.5 °F 30.21 in West 5.0 mph 15.0 mph 59% 0.00 in
20:44 29.0 °F 16.4 °F 30.21 in West 6.0 mph 15.0 mph 59% 0.00 in
20:49 29.1 °F 16.5 °F 30.22 in WSW 8.0 mph 14.0 mph 59% 0.00 in
20:54 29.0 °F 16.8 °F 30.22 in West 4.0 mph 10.0 mph 60% 0.00 in
20:59 28.7 °F 16.9 °F 30.22 in WSW 5.0 mph 14.0 mph 61% 0.00 in
21:04 28.7 °F 16.9 °F 30.22 in West 6.0 mph 14.0 mph 61% 0.00 in
21:09 28.6 °F 17.2 °F 30.22 in WSW 5.0 mph 14.0 mph 62% 0.00 in
21:14 28.5 °F 17.1 °F 30.22 in WSW 3.0 mph 12.0 mph 62% 0.00 in
21:19 28.3 °F 17.3 °F 30.22 in WSW 2.0 mph 9.0 mph 63% 0.00 in
21:24 28.2 °F 17.2 °F 30.22 in WSW 6.0 mph 9.0 mph 63% 0.00 in
21:29 28.2 °F 17.2 °F 30.23 in WSW 7.0 mph 11.0 mph 63% 0.00 in
21:34 28.1 °F 17.5 °F 30.23 in WSW 5.0 mph 11.0 mph 64% 0.00 in
21:39 28.0 °F 17.4 °F 30.23 in WSW 5.0 mph 10.0 mph 64% 0.00 in
21:44 27.8 °F 17.2 °F 30.23 in WSW 5.0 mph 10.0 mph 64% 0.00 in
21:49 27.6 °F 17.4 °F 30.23 in WSW 3.0 mph 10.0 mph 65% 0.00 in
21:54 27.5 °F 17.3 °F 30.23 in West 2.0 mph 9.0 mph 65% 0.00 in
21:59 27.3 °F 17.1 °F 30.23 in West 6.0 mph 8.0 mph 65% 0.00 in
22:04 27.4 °F 17.2 °F 30.23 in West 4.0 mph 8.0 mph 65% 0.00 in
22:09 27.4 °F 17.2 °F 30.23 in WSW 5.0 mph 9.0 mph 65% 0.00 in
22:14 27.3 °F 16.7 °F 30.23 in WSW 5.0 mph 10.0 mph 64% 0.00 in
22:19 27.2 °F 16.6 °F 30.23 in WSW 5.0 mph 10.0 mph 64% 0.00 in
22:24 27.2 °F 16.6 °F 30.24 in SW 4.0 mph 10.0 mph 64% 0.00 in
22:29 27.1 °F 16.5 °F 30.23 in WSW 4.0 mph 9.0 mph 64% 0.00 in
22:34 27.0 °F 16.1 °F 30.24 in WSW 4.0 mph 8.0 mph 63% 0.00 in
22:39 27.2 °F 16.3 °F 30.24 in WSW 5.0 mph 10.0 mph 63% 0.00 in
22:44 27.0 °F 16.1 °F 30.24 in WSW 5.0 mph 10.0 mph 63% 0.00 in
22:49 27.0 °F 16.1 °F 30.24 in West 3.0 mph 10.0 mph 63% 0.00 in
22:54 26.9 °F 16.0 °F 30.24 in SW 4.0 mph 8.0 mph 63% 0.00 in
22:59 26.9 °F 16.0 °F 30.24 in West 4.0 mph 12.0 mph 63% 0.00 in
23:04 26.9 °F 16.0 °F 30.24 in West 4.0 mph 12.0 mph 63% 0.00 in
23:09 26.6 °F 15.7 °F 30.24 in West 4.0 mph 10.0 mph 63% 0.00 in
23:14 26.5 °F 15.6 °F 30.24 in West 4.0 mph 11.0 mph 63% 0.00 in
23:19 26.5 °F 16.0 °F 30.24 in WSW 2.0 mph 10.0 mph 64% 0.00 in
23:24 26.4 °F 15.9 °F 30.24 in WSW 6.0 mph 9.0 mph 64% 0.00 in
23:29 26.3 °F 15.8 °F 30.24 in West 2.0 mph 8.0 mph 64% 0.00 in
23:34 26.1 °F 15.6 °F 30.24 in West 3.0 mph 8.0 mph 64% 0.00 in
23:39 26.0 °F 15.5 °F 30.24 in West 3.0 mph 8.0 mph 64% 0.00 in
23:44 25.8 °F 15.6 °F 30.24 in WSW 3.0 mph 6.0 mph 65% 0.00 in
23:49 25.8 °F 15.6 °F 30.24 in West 2.0 mph 6.0 mph 65% 0.00 in
23:54 25.7 °F 15.9 °F 30.24 in WSW 2.0 mph 6.0 mph 66% 0.00 in
23:59 25.8 °F 15.6 °F 30.24 in WSW 1.0 mph 5.0 mph 65% 0.00 in
Buffalo, New York, USA
Compliments of Weather Underground - 2.5 mb